Flight Track Log - Related Links

Times and Time Zones

All times are in EDT time to prevent confusion due to time zone crossing. See the RPA3228 flight status page for this flight to view local times or setup timezone preferences in your user account.

Time Position Orientation Groundspeed Altitude Reporting Facility
EDT Latitude Longitude Course Direction KTS MPH feet Rate Location/Type
Fri 10:39:13 AM 38.8833 -77.0500 61° Northeast 166 191 1,400  Level Potomac TRACON
Fri 10:41:00 AM 38.9648 -76.6888 67° East  Level FlightAware Approximate
Fri 10:41:35 AM 39.0056 -77.1489 328° Northwest 224 258 6,900  Level Washington Center
Fri 10:42:00 AM 39.0121 -76.5757 57° Northeast  Level FlightAware Approximate
Fri 10:42:33 AM 39.0336 -77.0533 69° East 187 215 9,700  Level Washington Center
Fri 10:43:00 AM 39.0560 -76.4599 63° Northeast  Level FlightAware Approximate
Fri 10:43:33 AM 39.0475 -76.9439 81° East 248 285 11,600  Level Washington Center
Fri 10:44:00 AM 39.1039 -76.3465 61° Northeast  Level FlightAware Approximate
Fri 10:44:33 AM 39.0656 -76.8242 79° East 287 330 13,700  Level Washington Center
Fri 10:45:34 AM 39.0833 -76.7014 79° East 330 380 15,500 1,869 Climbing Washington Center
Fri 10:46:35 AM 39.1011 -76.5706 80° East 360 414 17,500 1,513 Climbing Washington Center
Fri 10:47:33 AM 39.1189 -76.4369 80° East 372 428 18,500 1,068 Climbing Washington Center
Fri 10:48:33 AM 39.1364 -76.3194 79° East 388 447 19,600 1,279 Climbing Washington Center
Fri 10:49:35 AM 39.1622 -76.1539 79° East 420 483 21,100 1,328 Climbing Washington Center
Fri 10:50:35 AM 39.1794 -76.0014 82° East 427 491 22,300 1,220 Climbing Washington Center
Fri 10:51:33 AM 39.2131 -75.8542 74° East 427 491 23,500 1,261 Climbing Washington Center
Fri 10:52:34 AM 39.2967 -75.7444 45° Northeast 415 478 24,800 1,230 Climbing Washington Center
Fri 10:53:35 AM 39.3864 -75.6319 44° Northeast 421 484 26,000 1,082 Climbing Washington Center
Fri 10:54:36 AM 39.4739 -75.5164 46° Northeast 433 498 27,000 508 Climbing Washington Center
Fri 10:55:33 AM 39.5614 -75.4058 44° Northeast 433 498 27,000  Level Washington Center
Fri 10:57:17 AM 39.7181 -75.1917 46° Northeast 425 489 27,000  Level New York Center
Fri 10:58:18 AM 39.7886 -75.0881 48° Northeast 431 496 27,000  Level New York Center
Fri 10:59:19 AM 39.8764 -74.9661 47° Northeast 436 502 27,000  Level New York Center
Fri 11:00:17 AM 39.9575 -74.8519 47° Northeast 437 503 27,000  Level New York Center
Fri 11:01:18 AM 40.0589 -74.7547 36° Northeast 432 497 27,000  Level New York Center
Fri 11:02:19 AM 40.1594 -74.6708 33° Northeast 432 497 27,000  Level New York Center
Fri 11:03:17 AM 40.2583 -74.5786 35° Northeast 432 497 27,000  Level New York Center
Fri 11:04:18 AM 40.3719 -74.4814 33° Northeast 437 503 27,000  Level New York Center
Fri 11:05:19 AM 40.4728 -74.3942 33° Northeast 437 503 27,000  Level New York Center
Fri 11:06:51 AM 40.6206 -74.2639 34° Northeast 457 526 27,000  Level Boston Center
Fri 11:07:51 AM 40.7325 -74.1711 32° Northeast 438 504 27,000  Level Boston Center
Fri 11:08:51 AM 40.8358 -74.0833 33° Northeast 438 504 27,000  Level Boston Center
Fri 11:09:51 AM 40.9372 -73.9925 34° Northeast 438 504 27,000  Level Boston Center
Fri 11:10:51 AM 41.0364 -73.9039 34° Northeast 438 504 27,000  Level Boston Center
Fri 11:11:51 AM 41.1394 -73.8181 32° Northeast 438 504 27,000  Level Boston Center
Fri 11:12:51 AM 41.2564 -73.8042 North 409 471 27,000  Level Boston Center
Fri 11:13:51 AM 41.3708 -73.8094 358° North 409 471 27,000  Level Boston Center
Fri 11:14:51 AM 41.4878 -73.7981 North 409 471 27,000  Level Boston Center
Fri 11:15:51 AM 41.6047 -73.7728 North 409 471 27,000  Level Boston Center
Fri 11:16:51 AM 41.7239 -73.7503 North 414 476 27,000  Level Boston Center
Fri 11:17:51 AM 41.8367 -73.7275 North 414 476 27,000  Level Boston Center
Fri 11:18:51 AM 41.9536 -73.7047 North 414 476 27,000  Level Boston Center
Fri 11:19:51 AM 42.0747 -73.6736 11° North 421 484 27,000  Level Boston Center
Fri 11:20:51 AM 42.1939 -73.6478 North 431 496 27,000  Level Boston Center
Fri 11:21:51 AM 42.3067 -73.6219 10° North 426 490 27,000  Level Boston Center
Fri 11:22:51 AM 42.4236 -73.6044 North 426 490 27,000  Level Boston Center
Fri 11:23:51 AM 42.5406 -73.5814 North 426 490 27,000  Level Boston Center
Fri 11:24:51 AM 42.6597 -73.5553 North 426 490 27,000  Level Boston Center
Fri 11:25:51 AM 42.7767 -73.5292 North 426 490 27,000  Level Boston Center
Fri 11:26:51 AM 42.8872 -73.5056 North 426 490 27,000 -300 Level Boston Center
Fri 11:27:51 AM 43.0083 -73.4764 10° North 426 490 26,400 -1,200 Descending Boston Center
Fri 11:28:51 AM 43.1169 -73.4528 North 419 482 24,600 -1,250 Descending Boston Center
Fri 11:29:51 AM 43.2233 -73.4317 North 395 455 23,900 -650 Descending Boston Center
Fri 11:30:51 AM 43.3278 -73.4078 North 387 445 23,300 -1,450 Descending Boston Center
Fri 11:31:51 AM 43.4303 -73.3836 10° North 382 440 21,000 -2,300 Descending Boston Center
Fri 11:32:51 AM 43.5306 -73.3592 10° North 371 427 18,700 -2,250 Descending Boston Center
Fri 11:33:51 AM 43.6286 -73.3408 North 361 415 16,500 -2,200 Descending Boston Center
Fri 11:34:51 AM 43.7267 -73.3219 North 356 410 14,300 -2,200 Descending Boston Center
Fri 11:35:51 AM 43.8247 -73.2975 10° North 356 410 12,100 -1,650 Descending Boston Center
Fri 11:36:51 AM 43.9167 -73.2789 North 351 404 11,000 -550 Descending Boston Center
Fri 11:37:51 AM 44.0083 -73.2714 North 346 398 11,000 -300 Level Boston Center
Fri 11:38:51 AM 44.0936 -73.2986 347° North 317 365 10,400 -1,400 Descending Boston Center
Fri 11:39:51 AM 44.1706 -73.3228 347° North 293 337 8,200 -2,150 Descending Boston Center
Fri 11:40:51 AM 44.2453 -73.3500 345° North 276 318 6,100 -1,900 Descending Boston Center
Fri 11:41:51 AM 44.3158 -73.3772 345° North 265 305 4,400 -1,050 Descending Boston Center
Fri 11:42:51 AM 44.3844 -73.4044 344° North 255 293 4,000 -200 Descending Boston Center
Fri 11:43:51 AM 44.4447 -73.4286 344° North 238 274 4,000  Level Boston Center
Fri 11:44:51 AM 44.5047 -73.4531 344° North 226 260 4,000 -450 Level Boston Center
Fri 11:45:51 AM 44.5531 -73.4100 32° Northeast 195 224 3,100 -800 Descending Boston Center
Fri 11:46:51 AM 44.5744 -73.3522 63° Northeast 164 189 2,400 -450 Descending Boston Center
Fri 11:47:51 AM 44.5542 -73.2878 114° Southeast 164 189 2,200 -200 Descending Boston Center

Login

Don't have an account? Register now (free) for customized features, flight alerts, and more!